sensor_id;sensor_type;location;lat;lon;timestamp;pressure;altitude;pressure_sealevel;temperature;humidity
33189;BME280;52601;53.070;10.600;2022-08-02T00:02:44;101582.78;;;12.04;100.00
33189;BME280;52601;53.070;10.600;2022-08-02T00:05:30;101576.91;;;11.98;100.00
33189;BME280;52601;53.070;10.600;2022-08-02T00:08:16;101559.16;;;11.81;100.00
33189;BME280;52601;53.070;10.600;2022-08-02T00:11:01;101584.06;;;11.94;100.00
33189;BME280;52601;53.070;10.600;2022-08-02T00:13:47;101575.44;;;11.91;100.00
33189;BME280;52601;53.070;10.600;2022-08-02T00:16:33;101572.50;;;11.98;100.00
33189;BME280;52601;53.070;10.600;2022-08-02T00:19:22;101558.91;;;11.87;100.00
33189;BME280;52601;53.070;10.600;2022-08-02T00:22:08;101562.06;;;11.97;100.00
33189;BME280;52601;53.070;10.600;2022-08-02T00:24:54;101574.19;;;11.99;100.00
33189;BME280;52601;53.070;10.600;2022-08-02T00:27:40;101563.22;;;11.90;100.00
33189;BME280;52601;53.070;10.600;2022-08-02T00:30:25;101588.31;;;11.75;100.00
33189;BME280;52601;53.070;10.600;2022-08-02T00:33:11;101567.06;;;11.58;100.00
33189;BME280;52601;53.070;10.600;2022-08-02T00:35:56;101580.41;;;11.75;100.00
33189;BME280;52601;53.070;10.600;2022-08-02T00:38:42;101583.91;;;11.76;100.00
33189;BME280;52601;53.070;10.600;2022-08-02T00:41:28;101589.59;;;11.64;100.00
33189;BME280;52601;53.070;10.600;2022-08-02T00:44:18;101570.09;;;11.48;100.00
33189;BME280;52601;53.070;10.600;2022-08-02T00:47:04;101580.81;;;11.42;100.00
33189;BME280;52601;53.070;10.600;2022-08-02T00:49:49;101590.19;;;11.49;100.00
33189;BME280;52601;53.070;10.600;2022-08-02T00:52:34;101592.91;;;11.47;100.00
33189;BME280;52601;53.070;10.600;2022-08-02T00:55:20;101578.91;;;11.47;100.00
33189;BME280;52601;53.070;10.600;2022-08-02T00:58:15;101575.88;;;11.34;100.00
33189;BME280;52601;53.070;10.600;2022-08-02T01:01:01;101587.41;;;11.30;100.00
33189;BME280;52601;53.070;10.600;2022-08-02T01:03:47;101604.88;;;11.31;100.00
33189;BME280;52601;53.070;10.600;2022-08-02T01:06:34;101600.22;;;11.39;100.00
33189;BME280;52601;53.070;10.600;2022-08-02T01:09:20;101581.84;;;11.38;100.00
33189;BME280;52601;53.070;10.600;2022-08-02T01:12:06;101587.75;;;11.44;100.00
33189;BME280;52601;53.070;10.600;2022-08-02T01:14:54;101596.47;;;11.45;100.00
33189;BME280;52601;53.070;10.600;2022-08-02T01:29:34;101589.59;;;10.94;100.00
33189;BME280;52601;53.070;10.600;2022-08-02T01:32:28;101599.94;;;10.99;100.00
33189;BME280;52601;53.070;10.600;2022-08-02T01:35:23;101588.41;;;11.03;100.00
33189;BME280;52601;53.070;10.600;2022-08-02T01:38:39;101598.09;;;11.01;100.00
33189;BME280;52601;53.070;10.600;2022-08-02T01:41:26;101595.38;;;10.79;100.00
33189;BME280;52601;53.070;10.600;2022-08-02T01:44:14;101605.03;;;10.79;100.00
33189;BME280;52601;53.070;10.600;2022-08-02T01:47:20;101609.59;;;10.72;100.00
33189;BME280;52601;53.070;10.600;2022-08-02T01:50:11;101618.13;;;10.79;100.00
33189;BME280;52601;53.070;10.600;2022-08-02T01:53:07;101606.44;;;10.63;100.00
33189;BME280;52601;53.070;10.600;2022-08-02T01:55:54;101617.34;;;10.77;100.00
33189;BME280;52601;53.070;10.600;2022-08-02T01:58:44;101607.31;;;10.63;100.00
33189;BME280;52601;53.070;10.600;2022-08-02T02:01:32;101611.63;;;10.64;100.00
33189;BME280;52601;53.070;10.600;2022-08-02T02:04:20;101613.66;;;10.56;100.00
33189;BME280;52601;53.070;10.600;2022-08-02T02:07:06;101608.38;;;10.58;100.00
33189;BME280;52601;53.070;10.600;2022-08-02T02:09:53;101610.88;;;10.61;100.00
33189;BME280;52601;53.070;10.600;2022-08-02T02:12:42;101601.16;;;10.38;100.00
33189;BME280;52601;53.070;10.600;2022-08-02T02:15:29;101591.38;;;10.43;100.00
33189;BME280;52601;53.070;10.600;2022-08-02T02:18:26;101606.38;;;10.39;100.00
33189;BME280;52601;53.070;10.600;2022-08-02T02:21:12;101609.19;;;10.33;100.00
33189;BME280;52601;53.070;10.600;2022-08-02T02:23:58;101606.31;;;10.41;100.00
33189;BME280;52601;53.070;10.600;2022-08-02T02:26:45;101607.66;;;10.53;100.00
33189;BME280;52601;53.070;10.600;2022-08-02T02:29:43;101597.38;;;10.47;100.00
33189;BME280;52601;53.070;10.600;2022-08-02T02:32:29;101607.56;;;10.29;100.00
33189;BME280;52601;53.070;10.600;2022-08-02T02:35:15;101615.44;;;10.29;100.00
33189;BME280;52601;53.070;10.600;2022-08-02T02:38:03;101613.47;;;10.36;100.00
33189;BME280;52601;53.070;10.600;2022-08-02T02:40:50;101605.25;;;10.20;100.00
33189;BME280;52601;53.070;10.600;2022-08-02T02:43:37;101610.59;;;10.17;100.00
33189;BME280;52601;53.070;10.600;2022-08-02T02:46:25;101598.38;;;10.16;100.00
33189;BME280;52601;53.070;10.600;2022-08-02T02:49:13;101601.63;;;10.24;100.00
33189;BME280;52601;53.070;10.600;2022-08-02T02:52:02;101590.25;;;10.25;100.00
33189;BME280;52601;53.070;10.600;2022-08-02T02:54:49;101589.63;;;10.17;100.00
33189;BME280;52601;53.070;10.600;2022-08-02T02:57:36;101584.94;;;9.99;100.00
33189;BME280;52601;53.070;10.600;2022-08-02T03:00:22;101596.75;;;10.12;100.00
33189;BME280;52601;53.070;10.600;2022-08-02T03:03:29;101610.00;;;10.08;100.00
33189;BME280;52601;53.070;10.600;2022-08-02T03:06:15;101596.09;;;9.78;100.00
33189;BME280;52601;53.070;10.600;2022-08-02T03:09:00;101596.28;;;9.72;100.00
33189;BME280;52601;53.070;10.600;2022-08-02T03:11:46;101594.38;;;9.77;100.00
33189;BME280;52601;53.070;10.600;2022-08-02T03:14:32;101588.25;;;9.78;100.00
33189;BME280;52601;53.070;10.600;2022-08-02T03:17:18;101598.28;;;9.92;100.00
33189;BME280;52601;53.070;10.600;2022-08-02T03:20:09;101577.78;;;9.77;100.00
33189;BME280;52601;53.070;10.600;2022-08-02T03:22:55;101579.59;;;9.75;100.00
33189;BME280;52601;53.070;10.600;2022-08-02T03:25:40;101591.66;;;9.80;100.00
33189;BME280;52601;53.070;10.600;2022-08-02T03:28:26;101587.13;;;9.85;100.00
33189;BME280;52601;53.070;10.600;2022-08-02T03:31:12;101587.81;;;9.90;100.00
33189;BME280;52601;53.070;10.600;2022-08-02T03:33:58;101578.38;;;9.86;100.00
33189;BME280;52601;53.070;10.600;2022-08-02T03:36:47;101589.69;;;9.87;100.00
33189;BME280;52601;53.070;10.600;2022-08-02T03:39:33;101587.06;;;9.87;100.00
33189;BME280;52601;53.070;10.600;2022-08-02T03:42:20;101588.13;;;9.81;100.00
33189;BME280;52601;53.070;10.600;2022-08-02T03:45:08;101582.09;;;9.79;100.00
33189;BME280;52601;53.070;10.600;2022-08-02T03:47:55;101583.75;;;9.82;100.00
33189;BME280;52601;53.070;10.600;2022-08-02T03:50:46;101588.75;;;9.89;100.00
33189;BME280;52601;53.070;10.600;2022-08-02T03:53:32;101578.09;;;9.95;100.00
33189;BME280;52601;53.070;10.600;2022-08-02T03:56:18;101590.66;;;9.84;100.00
33189;BME280;52601;53.070;10.600;2022-08-02T03:59:10;101597.41;;;9.91;100.00
33189;BME280;52601;53.070;10.600;2022-08-02T04:01:56;101582.81;;;9.84;100.00
33189;BME280;52601;53.070;10.600;2022-08-02T04:04:41;101577.72;;;9.80;100.00
33189;BME280;52601;53.070;10.600;2022-08-02T04:07:26;101598.28;;;9.92;100.00
33189;BME280;52601;53.070;10.600;2022-08-02T04:10:32;101607.41;;;10.06;100.00
33189;BME280;52601;53.070;10.600;2022-08-02T04:13:41;101596.28;;;10.00;100.00
33189;BME280;52601;53.070;10.600;2022-08-02T04:16:41;101613.34;;;10.13;100.00
33189;BME280;52601;53.070;10.600;2022-08-02T04:19:33;101598.28;;;10.19;100.00
33189;BME280;52601;53.070;10.600;2022-08-02T04:22:29;101614.88;;;10.20;100.00
33189;BME280;52601;53.070;10.600;2022-08-02T04:25:18;101615.50;;;10.28;100.00
33189;BME280;52601;53.070;10.600;2022-08-02T04:28:19;101608.94;;;10.41;100.00
33189;BME280;52601;53.070;10.600;2022-08-02T04:31:13;101611.16;;;10.53;100.00
33189;BME280;52601;53.070;10.600;2022-08-02T04:34:00;101620.63;;;10.57;100.00
33189;BME280;52601;53.070;10.600;2022-08-02T04:36:46;101613.56;;;10.59;100.00
33189;BME280;52601;53.070;10.600;2022-08-02T04:39:32;101616.78;;;10.67;100.00
33189;BME280;52601;53.070;10.600;2022-08-02T04:42:24;101629.53;;;10.78;100.00
33189;BME280;52601;53.070;10.600;2022-08-02T04:45:10;101620.75;;;10.79;100.00
33189;BME280;52601;53.070;10.600;2022-08-02T04:48:01;101597.03;;;10.82;100.00
33189;BME280;52601;53.070;10.600;2022-08-02T04:50:50;101609.25;;;11.07;100.00
33189;BME280;52601;53.070;10.600;2022-08-02T04:53:36;101608.09;;;11.14;100.00
33189;BME280;52601;53.070;10.600;2022-08-02T04:56:21;101612.13;;;11.24;100.00
33189;BME280;52601;53.070;10.600;2022-08-02T04:59:07;101613.44;;;11.36;100.00
33189;BME280;52601;53.070;10.600;2022-08-02T05:01:52;101602.81;;;11.39;100.00
33189;BME280;52601;53.070;10.600;2022-08-02T05:04:38;101594.53;;;11.50;100.00
33189;BME280;52601;53.070;10.600;2022-08-02T05:07:24;101598.81;;;11.52;100.00
33189;BME280;52601;53.070;10.600;2022-08-02T05:10:09;101615.38;;;11.77;100.00
33189;BME280;52601;53.070;10.600;2022-08-02T05:12:55;101615.28;;;11.80;100.00
33189;BME280;52601;53.070;10.600;2022-08-02T05:15:40;101608.28;;;11.79;100.00
33189;BME280;52601;53.070;10.600;2022-08-02T05:18:26;101625.19;;;11.95;100.00
33189;BME280;52601;53.070;10.600;2022-08-02T05:21:13;101614.97;;;11.88;100.00
33189;BME280;52601;53.070;10.600;2022-08-02T05:23:59;101618.56;;;11.85;100.00
33189;BME280;52601;53.070;10.600;2022-08-02T05:26:45;101618.22;;;11.94;100.00
33189;BME280;52601;53.070;10.600;2022-08-02T05:29:30;101612.41;;;11.86;100.00
33189;BME280;52601;53.070;10.600;2022-08-02T05:32:17;101605.00;;;11.74;100.00
33189;BME280;52601;53.070;10.600;2022-08-02T05:35:02;101620.22;;;11.88;100.00
33189;BME280;52601;53.070;10.600;2022-08-02T05:37:49;101615.13;;;12.06;100.00
33189;BME280;52601;53.070;10.600;2022-08-02T05:40:35;101604.78;;;12.24;100.00
33189;BME280;52601;53.070;10.600;2022-08-02T05:43:39;101590.22;;;12.37;100.00
33189;BME280;52601;53.070;10.600;2022-08-02T05:46:24;101605.38;;;12.72;100.00
33189;BME280;52601;53.070;10.600;2022-08-02T05:49:10;101616.81;;;12.91;100.00
33189;BME280;52601;53.070;10.600;2022-08-02T05:52:13;101614.34;;;13.08;100.00
33189;BME280;52601;53.070;10.600;2022-08-02T05:55:15;101614.63;;;13.21;100.00
33189;BME280;52601;53.070;10.600;2022-08-02T06:01:05;101621.28;;;13.68;100.00
33189;BME280;52601;53.070;10.600;2022-08-02T06:03:56;101610.19;;;13.78;100.00
33189;BME280;52601;53.070;10.600;2022-08-02T06:06:43;101618.59;;;14.05;100.00
33189;BME280;52601;53.070;10.600;2022-08-02T06:09:33;101612.50;;;14.22;100.00
33189;BME280;52601;53.070;10.600;2022-08-02T06:12:19;101615.81;;;14.44;100.00
33189;BME280;52601;53.070;10.600;2022-08-02T06:15:05;101622.44;;;14.69;100.00
33189;BME280;52601;53.070;10.600;2022-08-02T06:17:51;101617.84;;;14.90;100.00
33189;BME280;52601;53.070;10.600;2022-08-02T06:20:37;101616.72;;;15.11;100.00
33189;BME280;52601;53.070;10.600;2022-08-02T06:23:24;101615.84;;;15.28;100.00
33189;BME280;52601;53.070;10.600;2022-08-02T06:26:12;101622.66;;;15.49;100.00
33189;BME280;52601;53.070;10.600;2022-08-02T06:28:58;101609.63;;;15.62;100.00
33189;BME280;52601;53.070;10.600;2022-08-02T06:31:44;101611.28;;;15.80;100.00
33189;BME280;52601;53.070;10.600;2022-08-02T06:34:29;101621.09;;;15.93;100.00
33189;BME280;52601;53.070;10.600;2022-08-02T06:37:47;101623.38;;;16.15;100.00
33189;BME280;52601;53.070;10.600;2022-08-02T06:41:05;101613.47;;;16.50;100.00
33189;BME280;52601;53.070;10.600;2022-08-02T06:43:59;101613.59;;;16.62;100.00
33189;BME280;52601;53.070;10.600;2022-08-02T06:47:05;101607.50;;;16.76;100.00
33189;BME280;52601;53.070;10.600;2022-08-02T06:49:56;101596.81;;;16.91;99.91
33189;BME280;52601;53.070;10.600;2022-08-02T06:52:42;101603.19;;;17.17;98.03
33189;BME280;52601;53.070;10.600;2022-08-02T06:55:28;101598.00;;;17.44;98.26
33189;BME280;52601;53.070;10.600;2022-08-02T06:58:13;101609.66;;;17.55;96.41
33189;BME280;52601;53.070;10.600;2022-08-02T07:00:59;101609.47;;;17.58;96.66
33189;BME280;52601;53.070;10.600;2022-08-02T07:03:44;101592.00;;;17.68;93.66
33189;BME280;52601;53.070;10.600;2022-08-02T07:06:30;101613.94;;;17.98;93.84
33189;BME280;52601;53.070;10.600;2022-08-02T07:09:15;101608.25;;;18.04;91.73
33189;BME280;52601;53.070;10.600;2022-08-02T07:12:06;101600.69;;;18.52;85.98
33189;BME280;52601;53.070;10.600;2022-08-02T07:14:52;101594.84;;;18.59;86.03
33189;BME280;52601;53.070;10.600;2022-08-02T07:17:38;101611.25;;;18.66;81.52
33189;BME280;52601;53.070;10.600;2022-08-02T07:20:23;101608.06;;;18.73;85.18
33189;BME280;52601;53.070;10.600;2022-08-02T07:23:09;101596.94;;;19.06;83.84
33189;BME280;52601;53.070;10.600;2022-08-02T07:25:55;101583.03;;;19.40;82.61
33189;BME280;52601;53.070;10.600;2022-08-02T07:28:49;101574.50;;;19.48;77.01
33189;BME280;52601;53.070;10.600;2022-08-02T07:31:35;101581.66;;;19.71;80.30
33189;BME280;52601;53.070;10.600;2022-08-02T07:34:20;101582.25;;;19.51;77.48
33189;BME280;52601;53.070;10.600;2022-08-02T07:37:07;101574.66;;;19.70;80.36
33189;BME280;52601;53.070;10.600;2022-08-02T07:40:13;101576.75;;;19.77;75.27
33189;BME280;52601;53.070;10.600;2022-08-02T07:43:04;101567.03;;;20.13;77.56
33189;BME280;52601;53.070;10.600;2022-08-02T07:45:51;101557.47;;;20.10;79.78
33189;BME280;52601;53.070;10.600;2022-08-02T07:48:46;101566.84;;;20.50;78.53
33189;BME280;52601;53.070;10.600;2022-08-02T07:51:32;101563.25;;;20.63;76.17
33189;BME280;52601;53.070;10.600;2022-08-02T07:54:17;101560.72;;;20.72;74.84
33189;BME280;52601;53.070;10.600;2022-08-02T07:57:03;101556.16;;;20.96;75.05
33189;BME280;52601;53.070;10.600;2022-08-02T07:59:48;101547.09;;;20.99;70.34
33189;BME280;52601;53.070;10.600;2022-08-02T08:02:35;101552.22;;;21.35;72.51
33189;BME280;52601;53.070;10.600;2022-08-02T08:05:21;101559.22;;;21.69;72.81
33189;BME280;52601;53.070;10.600;2022-08-02T08:08:08;101547.19;;;21.75;67.42
33189;BME280;52601;53.070;10.600;2022-08-02T08:11:01;101563.28;;;22.06;73.53
33189;BME280;52601;53.070;10.600;2022-08-02T08:13:47;101569.47;;;22.39;65.67
33189;BME280;52601;53.070;10.600;2022-08-02T08:16:32;101573.81;;;22.51;65.34
33189;BME280;52601;53.070;10.600;2022-08-02T08:19:18;101567.78;;;22.06;72.29
33189;BME280;52601;53.070;10.600;2022-08-02T08:22:03;101558.97;;;22.26;68.27
33189;BME280;52601;53.070;10.600;2022-08-02T08:24:50;101544.47;;;22.60;65.45
33189;BME280;52601;53.070;10.600;2022-08-02T08:27:35;101544.44;;;23.01;67.08
33189;BME280;52601;53.070;10.600;2022-08-02T08:30:21;101541.81;;;23.41;67.22
33189;BME280;52601;53.070;10.600;2022-08-02T08:33:07;101549.72;;;23.92;65.43
33189;BME280;52601;53.070;10.600;2022-08-02T08:35:53;101538.47;;;24.36;64.26
33189;BME280;52601;53.070;10.600;2022-08-02T08:38:39;101517.13;;;24.54;63.37
33189;BME280;52601;53.070;10.600;2022-08-02T08:41:24;101529.19;;;25.42;60.48
33189;BME280;52601;53.070;10.600;2022-08-02T08:44:14;101510.16;;;25.26;59.67
33189;BME280;52601;53.070;10.600;2022-08-02T08:47:02;101516.84;;;25.94;60.06
33189;BME280;52601;53.070;10.600;2022-08-02T08:49:50;101504.69;;;25.90;54.72
33189;BME280;52601;53.070;10.600;2022-08-02T08:52:42;101509.59;;;26.48;56.26
33189;BME280;52601;53.070;10.600;2022-08-02T08:55:33;101504.41;;;26.97;55.16
33189;BME280;52601;53.070;10.600;2022-08-02T08:58:19;101476.28;;;26.92;54.98
33189;BME280;52601;53.070;10.600;2022-08-02T09:01:05;101495.53;;;27.39;53.79
33189;BME280;52601;53.070;10.600;2022-08-02T09:03:51;101484.91;;;27.95;51.43
33189;BME280;52601;53.070;10.600;2022-08-02T09:06:38;101484.19;;;27.77;51.43
33189;BME280;52601;53.070;10.600;2022-08-02T09:09:24;101466.84;;;28.52;48.79
33189;BME280;52601;53.070;10.600;2022-08-02T09:12:13;101479.53;;;28.43;50.74
33189;BME280;52601;53.070;10.600;2022-08-02T09:15:04;101487.94;;;28.64;52.42
33189;BME280;52601;53.070;10.600;2022-08-02T09:17:50;101482.22;;;29.61;48.33
33189;BME280;52601;53.070;10.600;2022-08-02T09:20:51;101475.94;;;30.36;47.65
33189;BME280;52601;53.070;10.600;2022-08-02T09:26:28;101466.03;;;30.21;46.65
33189;BME280;52601;53.070;10.600;2022-08-02T09:29:15;101459.38;;;30.98;43.17
33189;BME280;52601;53.070;10.600;2022-08-02T09:32:04;101458.56;;;30.08;45.29
33189;BME280;52601;53.070;10.600;2022-08-02T09:34:52;101459.31;;;30.39;44.17
33189;BME280;52601;53.070;10.600;2022-08-02T09:37:38;101446.34;;;30.27;46.03
33189;BME280;52601;53.070;10.600;2022-08-02T09:40:34;101460.34;;;30.90;47.27
33189;BME280;52601;53.070;10.600;2022-08-02T09:43:20;101442.09;;;30.99;43.51
33189;BME280;52601;53.070;10.600;2022-08-02T09:46:20;101455.53;;;31.72;40.84
33189;BME280;52601;53.070;10.600;2022-08-02T09:49:16;101455.34;;;31.94;40.37
33189;BME280;52601;53.070;10.600;2022-08-02T09:52:04;101444.81;;;32.55;40.02
33189;BME280;52601;53.070;10.600;2022-08-02T09:54:49;101447.50;;;33.30;38.31
33189;BME280;52601;53.070;10.600;2022-08-02T09:57:35;101424.25;;;32.80;40.66
33189;BME280;52601;53.070;10.600;2022-08-02T10:00:23;101429.25;;;33.64;39.89
33189;BME280;52601;53.070;10.600;2022-08-02T10:03:29;101422.59;;;34.00;39.33
33189;BME280;52601;53.070;10.600;2022-08-02T10:06:19;101428.13;;;35.40;35.49
33189;BME280;52601;53.070;10.600;2022-08-02T10:09:06;101427.19;;;34.25;36.65
33189;BME280;52601;53.070;10.600;2022-08-02T10:11:52;101418.19;;;34.38;36.51
33189;BME280;52601;53.070;10.600;2022-08-02T10:14:38;101418.34;;;34.62;36.33
33189;BME280;52601;53.070;10.600;2022-08-02T10:17:23;101431.59;;;34.07;37.97
33189;BME280;52601;53.070;10.600;2022-08-02T10:20:10;101413.53;;;34.45;37.98
33189;BME280;52601;53.070;10.600;2022-08-02T10:22:56;101431.41;;;34.54;37.11
33189;BME280;52601;53.070;10.600;2022-08-02T10:25:44;101430.91;;;36.27;34.15
33189;BME280;52601;53.070;10.600;2022-08-02T10:28:31;101422.72;;;34.83;38.49
33189;BME280;52601;53.070;10.600;2022-08-02T10:31:20;101420.47;;;37.51;33.23
33189;BME280;52601;53.070;10.600;2022-08-02T10:34:10;101417.44;;;38.24;32.15
33189;BME280;52601;53.070;10.600;2022-08-02T10:37:00;101396.09;;;37.73;31.31
33189;BME280;52601;53.070;10.600;2022-08-02T10:39:54;101396.16;;;35.85;33.33
33189;BME280;52601;53.070;10.600;2022-08-02T10:42:47;101399.94;;;36.58;34.58
33189;BME280;52601;53.070;10.600;2022-08-02T10:45:33;101387.47;;;35.26;37.06
33189;BME280;52601;53.070;10.600;2022-08-02T10:48:19;101376.66;;;37.63;35.29
33189;BME280;52601;53.070;10.600;2022-08-02T10:51:06;101388.84;;;37.37;33.86
33189;BME280;52601;53.070;10.600;2022-08-02T10:54:07;101388.22;;;38.06;33.23
33189;BME280;52601;53.070;10.600;2022-08-02T10:56:55;101392.34;;;38.90;30.55
33189;BME280;52601;53.070;10.600;2022-08-02T10:59:42;101388.81;;;39.62;28.61
33189;BME280;52601;53.070;10.600;2022-08-02T11:02:46;101382.75;;;40.26;27.50
33189;BME280;52601;53.070;10.600;2022-08-02T11:05:37;101363.56;;;40.31;28.10
33189;BME280;52601;53.070;10.600;2022-08-02T11:08:28;101366.88;;;40.50;28.42
33189;BME280;52601;53.070;10.600;2022-08-02T11:11:16;101383.50;;;39.72;30.40
33189;BME280;52601;53.070;10.600;2022-08-02T11:14:05;101383.25;;;39.29;28.63
33189;BME280;52601;53.070;10.600;2022-08-02T11:29:15;101367.84;;;41.26;28.26
33189;BME280;52601;53.070;10.600;2022-08-02T11:32:01;101368.88;;;40.76;27.72
33189;BME280;52601;53.070;10.600;2022-08-02T11:34:50;101358.94;;;39.66;29.60
33189;BME280;52601;53.070;10.600;2022-08-02T11:37:38;101351.34;;;40.22;27.82
33189;BME280;52601;53.070;10.600;2022-08-02T11:40:36;101367.97;;;40.11;29.22
33189;BME280;52601;53.070;10.600;2022-08-02T11:43:24;101365.47;;;41.34;27.51
33189;BME280;52601;53.070;10.600;2022-08-02T11:46:13;101354.53;;;43.51;24.95
33189;BME280;52601;53.070;10.600;2022-08-02T11:49:11;101346.94;;;41.30;28.22
33189;BME280;52601;53.070;10.600;2022-08-02T11:52:00;101339.72;;;41.87;28.68
33189;BME280;52601;53.070;10.600;2022-08-02T11:54:49;101335.19;;;43.41;26.92
33189;BME280;52601;53.070;10.600;2022-08-02T11:57:35;101339.06;;;43.55;26.26
33189;BME280;52601;53.070;10.600;2022-08-02T12:00:41;101327.22;;;42.06;27.16
33189;BME280;52601;53.070;10.600;2022-08-02T12:03:35;101328.38;;;42.15;25.76
33189;BME280;52601;53.070;10.600;2022-08-02T12:06:23;101316.97;;;42.48;25.81
33189;BME280;52601;53.070;10.600;2022-08-02T12:09:11;101322.75;;;42.52;26.03
33189;BME280;52601;53.070;10.600;2022-08-02T12:12:04;101323.63;;;43.65;25.20
33189;BME280;52601;53.070;10.600;2022-08-02T12:14:49;101312.88;;;41.72;26.02
33189;BME280;52601;53.070;10.600;2022-08-02T12:17:36;101316.44;;;42.56;27.12
33189;BME280;52601;53.070;10.600;2022-08-02T12:20:40;101330.78;;;42.07;25.13
33189;BME280;52601;53.070;10.600;2022-08-02T12:23:26;101322.28;;;40.91;27.29
33189;BME280;52601;53.070;10.600;2022-08-02T12:26:11;101299.78;;;41.89;26.17
33189;BME280;52601;53.070;10.600;2022-08-02T12:29:00;101296.84;;;42.58;25.29
33189;BME280;52601;53.070;10.600;2022-08-02T12:31:46;101307.53;;;39.99;28.34
33189;BME280;52601;53.070;10.600;2022-08-02T12:34:42;101302.72;;;40.06;30.52
33189;BME280;52601;53.070;10.600;2022-08-02T12:37:27;101288.06;;;39.84;31.30
33189;BME280;52601;53.070;10.600;2022-08-02T12:40:26;101301.75;;;39.18;30.27
33189;BME280;52601;53.070;10.600;2022-08-02T12:43:40;101290.72;;;40.56;29.12
33189;BME280;52601;53.070;10.600;2022-08-02T12:46:26;101276.38;;;39.94;27.46
33189;BME280;52601;53.070;10.600;2022-08-02T12:49:16;101281.59;;;39.57;28.60
33189;BME280;52601;53.070;10.600;2022-08-02T12:52:22;101270.72;;;41.40;26.87
33189;BME280;52601;53.070;10.600;2022-08-02T12:55:22;101260.91;;;42.43;25.57
33189;BME280;52601;53.070;10.600;2022-08-02T12:58:30;101267.59;;;41.63;26.77
33189;BME280;52601;53.070;10.600;2022-08-02T13:01:30;101257.16;;;42.12;25.07
33189;BME280;52601;53.070;10.600;2022-08-02T13:04:15;101262.69;;;42.84;25.18
33189;BME280;52601;53.070;10.600;2022-08-02T13:07:01;101266.41;;;41.86;25.57
33189;BME280;52601;53.070;10.600;2022-08-02T13:09:47;101257.56;;;41.89;24.85
33189;BME280;52601;53.070;10.600;2022-08-02T13:12:34;101249.34;;;42.56;23.38
33189;BME280;52601;53.070;10.600;2022-08-02T13:15:21;101256.69;;;41.15;26.27
33189;BME280;52601;53.070;10.600;2022-08-02T13:18:27;101254.31;;;41.24;25.13
33189;BME280;52601;53.070;10.600;2022-08-02T13:21:14;101257.00;;;41.87;25.18
33189;BME280;52601;53.070;10.600;2022-08-02T13:24:20;101240.97;;;42.31;24.86
33189;BME280;52601;53.070;10.600;2022-08-02T13:27:26;101226.09;;;40.85;27.35
33189;BME280;52601;53.070;10.600;2022-08-02T13:30:13;101226.25;;;42.10;26.47
33189;BME280;52601;53.070;10.600;2022-08-02T13:32:58;101235.38;;;42.98;24.59
33189;BME280;52601;53.070;10.600;2022-08-02T13:35:48;101221.59;;;43.38;23.78
33189;BME280;52601;53.070;10.600;2022-08-02T13:38:34;101228.88;;;42.42;25.06
33189;BME280;52601;53.070;10.600;2022-08-02T13:41:19;101226.78;;;41.29;26.17
33189;BME280;52601;53.070;10.600;2022-08-02T13:44:05;101217.81;;;41.80;24.35
33189;BME280;52601;53.070;10.600;2022-08-02T13:46:55;101215.94;;;41.49;27.12
33189;BME280;52601;53.070;10.600;2022-08-02T13:49:41;101217.09;;;39.81;28.73
33189;BME280;52601;53.070;10.600;2022-08-02T13:52:37;101228.44;;;40.45;25.35
33189;BME280;52601;53.070;10.600;2022-08-02T13:55:23;101231.59;;;39.10;28.42
33189;BME280;52601;53.070;10.600;2022-08-02T13:58:09;101232.75;;;37.26;29.29
33189;BME280;52601;53.070;10.600;2022-08-02T14:00:55;101229.66;;;38.38;28.07
33189;BME280;52601;53.070;10.600;2022-08-02T14:03:40;101213.53;;;38.98;26.96
33189;BME280;52601;53.070;10.600;2022-08-02T14:06:45;101221.16;;;38.39;29.00
33189;BME280;52601;53.070;10.600;2022-08-02T14:09:31;101227.25;;;38.41;28.27
33189;BME280;52601;53.070;10.600;2022-08-02T14:12:17;101209.66;;;37.22;29.13
33189;BME280;52601;53.070;10.600;2022-08-02T14:15:04;101206.41;;;36.24;31.14
33189;BME280;52601;53.070;10.600;2022-08-02T14:17:49;101218.53;;;35.24;33.31
33189;BME280;52601;53.070;10.600;2022-08-02T14:20:37;101214.34;;;33.96;33.82
33189;BME280;52601;53.070;10.600;2022-08-02T14:23:22;101202.84;;;34.00;35.07
33189;BME280;52601;53.070;10.600;2022-08-02T14:26:28;101206.25;;;34.33;33.40
33189;BME280;52601;53.070;10.600;2022-08-02T14:29:14;101196.94;;;34.10;34.10
33189;BME280;52601;53.070;10.600;2022-08-02T14:32:01;101211.72;;;33.56;34.43
33189;BME280;52601;53.070;10.600;2022-08-02T14:34:46;101200.78;;;34.40;32.57
33189;BME280;52601;53.070;10.600;2022-08-02T14:37:33;101184.78;;;36.41;32.88
33189;BME280;52601;53.070;10.600;2022-08-02T14:40:19;101194.19;;;38.08;31.35
33189;BME280;52601;53.070;10.600;2022-08-02T14:43:16;101195.53;;;40.11;26.14
33189;BME280;52601;53.070;10.600;2022-08-02T14:46:25;101196.75;;;40.69;27.28
33189;BME280;52601;53.070;10.600;2022-08-02T14:49:11;101191.50;;;40.67;27.84
33189;BME280;52601;53.070;10.600;2022-08-02T14:52:03;101188.09;;;40.33;26.57
33189;BME280;52601;53.070;10.600;2022-08-02T14:54:48;101182.59;;;39.90;27.12
33189;BME280;52601;53.070;10.600;2022-08-02T14:57:34;101173.88;;;39.55;27.24
33189;BME280;52601;53.070;10.600;2022-08-02T15:00:19;101186.78;;;38.76;29.82